Main page
METAR-TAF:

METAR-TAF

Airports :

Council Bluffs Municipal Airport

Council Bluffs, Iowa, United States

latitude: 41-16N, longitude: 095-46W, elevation: 1253 ft

Current weather observation

The report was made 11 minutes ago, at 21:15 UTC
Wind 6 mph from variable directions
Temperature 27°F
Humidity 36%
Pressure 30.69 in. Hg
Visibility: 10 miles
Clear sky

METAR: KCBF 202115Z AUTO VRB05KT 10SM CLR M03/M16 A3069 RMK AO2

Time: 15:26 (21:26 UTC)


TAF: missing

Weather observations and forecasts of more than 4000 airports (METAR and TAF reports).

The available stations are represented by yellow and red dots on the map.

Hover mouse over dot to see the name of the station.

Then click to see weather observations and forecasts.

To change the map : click on the green buttons with a black cross to zoom in, on the green button with a dash to zoom out, or on the green arrows for adjacent maps.


METAR-TAF: